Eagle Boston — 9VHI — position and weather

sailwx.info

Track history (hours):
 
Tides and Currents Weather Stations Pressure Air Temp Water Temp Dewpoint Dewpoint Depression Visibility Wind Speed Wind Dir Waves Ship Positions

Eagle Boston

Last reported at 2016-Jun-01 11:21 UTC. Time now 2016-Jul-01 10:02 UTC.
Position N 29°21' W 094°44'.
Warning: this ship's position is 29 days out of date.

Length 254 m; draft 8.5 m.

Type: Tanker. MMSI: 564004000.

Date/timePositionNaut miles runAvg speedWind from/ knotsBaromVisibWave heightAir tempDewpointWater temp
2016-Jun-01 11:21N 29°21' W 094°44'0 0.0
2016-Jun-01 10:31N 29°21' W 094°44'0 0.0
2016-Jun-01 09:30N 29°21' W 094°44'0 0.0
2016-Jun-01 08:30N 29°21' W 094°44'0 0.0
2016-Jun-01 07:30N 29°21' W 094°44'0 0.1
2016-Jun-01 06:32N 29°21' W 094°44'0 0.1
2016-Jun-01 05:32N 29°21' W 094°44'0 0.1
2016-Jun-01 04:21N 29°21' W 094°44'0 0.0
2016-May-31 21:20N 29°21' W 094°44'0 0.1
2016-May-31 20:18N 29°21' W 094°44'0 0.0
2016-May-31 19:13N 29°21' W 094°44'12 4.5
2016-May-31 16:28N 29°14' W 094°32'8 3.6
2016-May-31 14:14N 29°12' W 094°41'0 0.0
2016-May-31 11:29N 29°12' W 094°41'0 0.0
2016-May-31 10:26N 29°12' W 094°41'0 0.0
2016-May-31 07:26N 29°12' W 094°41'0 0.0
2016-May-30 11:11N 29°12' W 094°42'0 0.1
2016-May-30 10:32N 29°12' W 094°42'0 0.0
2016-May-30 08:17N 29°12' W 094°42'0 0.0
2016-May-30 07:32N 29°12' W 094°42'0 0.0
2016-May-30 04:11N 29°12' W 094°42'0 0.0
2016-May-29 11:17N 29°12' W 094°42'0 0.0
2016-May-29 10:32N 29°12' W 094°42'0 0.0
2016-May-29 08:29N 29°12' W 094°42'0 0.0
2016-May-29 07:17N 29°12' W 094°42'0 0.0
2016-May-29 06:32N 29°12' W 094°42'0 0.0
2016-May-29 05:29N 29°12' W 094°42'0 0.0
2016-May-29 03:11N 29°12' W 094°42'0 0.0
2016-May-28 14:23N 29°12' W 094°42'0 0.0
2016-May-28 13:14N 29°12' W 094°42'0 0.0
2016-May-28 07:32N 29°12' W 094°42'0 0.0
2016-May-26 11:23N 29°12' W 094°42'0 0.0
2016-May-26 09:32N 29°12' W 094°42'0 0.0
2016-May-26 06:32N 29°12' W 094°42'0 0.0
2016-May-25 18:17N 29°12' W 094°42'0 0.0
2016-May-25 15:05N 29°12' W 094°42'0 0.0
2016-May-25 13:17N 29°12' W 094°42'0 0.0
2016-May-25 07:29N 29°12' W 094°42'0 0.0
2016-May-24 15:29N 29°12' W 094°42'9 0.3
2016-May-23 10:28N 29°21' W 094°44'14 7.2
2016-May-23 08:34N 29°12' W 094°32'9 1.0
2016-May-22 23:19N 29°13' W 094°42'0 0.0
2016-May-22 22:13N 29°13' W 094°42'  
Track history (hours):
 
Tides and Currents Weather Stations Pressure Air Temp Water Temp Dewpoint Dewpoint Depression Visibility Wind Speed Wind Dir Waves Ship Positions

Eagle Boston

Last reported at 2016-Jun-01 11:21 UTC. Time now 2016-Jul-01 10:02 UTC.
Position N 29°21' W 094°44'.
Warning: this ship's position is 29 days out of date.

Length 254 m; draft 8.5 m.

Type: Tanker. MMSI: 564004000.

Date/timePositionNaut miles runAvg speedWind from/ knotsBaromVisibWave heightAir tempDewpointWater temp
2016-Jun-01 11:21N 29°21' W 094°44'0 0.0
2016-Jun-01 10:31N 29°21' W 094°44'0 0.0
2016-Jun-01 09:30N 29°21' W 094°44'0 0.0
2016-Jun-01 08:30N 29°21' W 094°44'0 0.0
2016-Jun-01 07:30N 29°21' W 094°44'0 0.1
2016-Jun-01 06:32N 29°21' W 094°44'0 0.1
2016-Jun-01 05:32N 29°21' W 094°44'0 0.1
2016-Jun-01 04:21N 29°21' W 094°44'0 0.0
2016-May-31 21:20N 29°21' W 094°44'0 0.1
2016-May-31 20:18N 29°21' W 094°44'0 0.0
2016-May-31 19:13N 29°21' W 094°44'12 4.5
2016-May-31 16:28N 29°14' W 094°32'8 3.6
2016-May-31 14:14N 29°12' W 094°41'0 0.0
2016-May-31 11:29N 29°12' W 094°41'0 0.0
2016-May-31 10:26N 29°12' W 094°41'0 0.0
2016-May-31 07:26N 29°12' W 094°41'0 0.0
2016-May-30 11:11N 29°12' W 094°42'0 0.1
2016-May-30 10:32N 29°12' W 094°42'0 0.0
2016-May-30 08:17N 29°12' W 094°42'0 0.0
2016-May-30 07:32N 29°12' W 094°42'0 0.0
2016-May-30 04:11N 29°12' W 094°42'0 0.0
2016-May-29 11:17N 29°12' W 094°42'0 0.0
2016-May-29 10:32N 29°12' W 094°42'0 0.0
2016-May-29 08:29N 29°12' W 094°42'0 0.0
2016-May-29 07:17N 29°12' W 094°42'0 0.0
2016-May-29 06:32N 29°12' W 094°42'0 0.0
2016-May-29 05:29N 29°12' W 094°42'0 0.0
2016-May-29 03:11N 29°12' W 094°42'0 0.0
2016-May-28 14:23N 29°12' W 094°42'0 0.0
2016-May-28 13:14N 29°12' W 094°42'0 0.0
2016-May-28 07:32N 29°12' W 094°42'0 0.0
2016-May-26 11:23N 29°12' W 094°42'0 0.0
2016-May-26 09:32N 29°12' W 094°42'0 0.0
2016-May-26 06:32N 29°12' W 094°42'0 0.0
2016-May-25 18:17N 29°12' W 094°42'0 0.0
2016-May-25 15:05N 29°12' W 094°42'0 0.0
2016-May-25 13:17N 29°12' W 094°42'0 0.0
2016-May-25 07:29N 29°12' W 094°42'0 0.0
2016-May-24 15:29N 29°12' W 094°42'9 0.3
2016-May-23 10:28N 29°21' W 094°44'14 7.2
2016-May-23 08:34N 29°12' W 094°32'9 1.0
2016-May-22 23:19N 29°13' W 094°42'0 0.0
2016-May-22 22:13N 29°13' W 094°42'  

Dump ship's entire track history